createdAt,value
2023-03-06T00:00:16.173Z,3.00
2023-03-06T00:00:48.843Z,4.60
2023-03-06T00:01:21.504Z,3.30
2023-03-06T00:01:54.199Z,3.60
2023-03-06T00:02:25.265Z,3.50
2023-03-06T00:02:57.922Z,3.30
2023-03-06T00:03:30.636Z,3.80
2023-03-06T00:04:03.328Z,4.50
2023-03-06T00:04:35.996Z,3.20
2023-03-06T00:05:08.677Z,3.80
2023-03-06T00:05:41.408Z,6.20
2023-03-06T00:06:14.140Z,3.20
2023-03-06T00:06:46.817Z,3.50
2023-03-06T00:07:19.490Z,5.80
2023-03-06T00:07:52.151Z,5.00
2023-03-06T00:08:24.836Z,4.50
2023-03-06T00:08:57.506Z,4.80
2023-03-06T00:09:30.193Z,3.70
2023-03-06T00:10:02.864Z,4.50
2023-03-06T00:10:35.531Z,4.80
2023-03-06T00:11:08.204Z,4.50
2023-03-06T00:11:40.892Z,4.20
2023-03-06T00:12:13.555Z,5.60
2023-03-06T00:12:46.249Z,3.90
2023-03-06T00:13:18.927Z,5.80
2023-03-06T00:13:51.605Z,4.70
2023-03-06T00:14:24.291Z,4.00
2023-03-06T00:14:56.976Z,5.00
2023-03-06T00:15:29.632Z,5.00
2023-03-06T00:16:02.338Z,4.50
2023-03-06T00:16:35.045Z,4.50
2023-03-06T00:17:07.685Z,4.30
2023-03-06T00:17:40.361Z,5.90
2023-03-06T00:18:13.040Z,5.10
2023-03-06T00:18:45.699Z,6.20
2023-03-06T00:19:18.386Z,5.90
2023-03-06T00:19:51.050Z,8.50
2023-03-06T00:20:23.725Z,7.10
2023-03-06T00:20:56.390Z,8.30
2023-03-06T00:21:27.494Z,6.10
2023-03-06T00:22:00.171Z,5.50
2023-03-06T00:22:33.059Z,5.40
2023-03-06T00:23:05.738Z,7.70
2023-03-06T00:23:38.417Z,6.80
2023-03-06T00:24:11.089Z,7.20
2023-03-06T00:24:43.786Z,6.10
2023-03-06T00:25:16.491Z,5.70
2023-03-06T00:25:49.128Z,5.00
2023-03-06T00:26:21.816Z,7.20
2023-03-06T00:26:54.485Z,4.80
2023-03-06T00:27:27.146Z,6.60
2023-03-06T00:27:59.843Z,4.50
2023-03-06T00:28:32.605Z,5.50
2023-03-06T00:29:05.284Z,3.10
2023-03-06T00:29:38.006Z,4.40
2023-03-06T00:30:10.657Z,2.90
2023-03-06T00:30:43.363Z,4.60
2023-03-06T00:31:16.069Z,4.30
2023-03-06T00:31:48.772Z,4.60
2023-03-06T00:32:21.529Z,3.70
2023-03-06T00:32:54.168Z,4.70
2023-03-06T00:33:26.840Z,4.10
2023-03-06T00:33:59.510Z,4.30
2023-03-06T00:34:32.217Z,3.50
2023-03-06T00:35:04.880Z,3.60
2023-03-06T00:35:37.597Z,4.10
2023-03-06T00:36:10.257Z,3.50
2023-03-06T00:36:42.923Z,4.50
2023-03-06T00:37:15.578Z,3.80
2023-03-06T00:37:48.270Z,2.10
2023-03-06T00:38:20.917Z,2.30
2023-03-06T00:38:53.617Z,3.60
2023-03-06T00:39:26.313Z,4.80
2023-03-06T00:39:58.994Z,5.10
2023-03-06T00:40:31.667Z,2.70
2023-03-06T00:41:04.372Z,3.30
2023-03-06T00:41:37.034Z,3.90
2023-03-06T00:42:09.708Z,4.00
2023-03-06T00:42:42.384Z,4.90
2023-03-06T00:43:15.068Z,4.50
2023-03-06T00:43:47.716Z,5.70
2023-03-06T00:44:20.407Z,4.70
2023-03-06T00:44:53.089Z,3.60
2023-03-06T00:45:25.833Z,3.30
2023-03-06T00:45:58.538Z,3.10
2023-03-06T00:46:31.231Z,3.10
2023-03-06T00:47:03.896Z,3.30
2023-03-06T00:47:36.570Z,3.70
2023-03-06T00:48:09.249Z,3.20
2023-03-06T00:48:41.935Z,3.70
2023-03-06T00:49:14.605Z,2.80
2023-03-06T00:49:47.275Z,3.60
2023-03-06T00:50:19.971Z,3.50
2023-03-06T00:50:52.605Z,5.50
2023-03-06T00:51:25.276Z,3.20
2023-03-06T00:51:57.937Z,4.10
2023-03-06T00:52:30.617Z,4.80
2023-03-06T00:53:03.293Z,4.70
2023-03-06T00:53:35.939Z,3.10
2023-03-06T00:54:08.603Z,2.90
2023-03-06T00:54:41.303Z,4.60
2023-03-06T00:55:13.963Z,3.10
2023-03-06T00:55:46.635Z,3.00
2023-03-06T00:56:20.022Z,3.60
2023-03-06T00:56:46.240Z,5.10
2023-03-06T00:57:18.907Z,4.10
2023-03-06T00:57:51.588Z,3.50
2023-03-06T00:58:24.276Z,3.20
2023-03-06T00:58:56.942Z,4.70
2023-03-06T00:59:29.635Z,4.30
2023-03-06T01:00:02.327Z,3.30
2023-03-06T01:00:34.983Z,3.00
2023-03-06T01:01:07.683Z,5.00
2023-03-06T01:01:40.340Z,4.90
2023-03-06T01:02:13.147Z,2.60
2023-03-06T01:02:45.785Z,4.50
2023-03-06T01:03:18.445Z,6.00
2023-03-06T01:03:51.117Z,3.70
2023-03-06T01:04:23.803Z,4.40
2023-03-06T01:04:56.466Z,6.20
2023-03-06T01:05:29.140Z,6.40
2023-03-06T01:06:01.810Z,5.50
2023-03-06T01:06:34.468Z,4.90
2023-03-06T01:07:07.125Z,8.50
2023-03-06T01:07:39.800Z,5.20
2023-03-06T01:08:12.475Z,6.50
2023-03-06T01:08:45.134Z,6.80
2023-03-06T01:09:17.828Z,6.00
2023-03-06T01:09:50.514Z,5.50
2023-03-06T01:10:23.178Z,6.00
2023-03-06T01:10:55.851Z,7.20
2023-03-06T01:11:28.517Z,6.80
2023-03-06T01:12:01.174Z,9.00
2023-03-06T01:12:33.847Z,7.50
2023-03-06T01:13:06.517Z,6.50
2023-03-06T01:13:39.202Z,6.70
2023-03-06T01:14:11.923Z,6.80
2023-03-06T01:14:44.589Z,7.20
2023-03-06T01:15:17.292Z,6.50
2023-03-06T01:15:49.934Z,7.20
2023-03-06T01:16:22.631Z,7.80
2023-03-06T01:16:55.272Z,8.90
2023-03-06T01:17:27.953Z,10.40
2023-03-06T01:18:00.609Z,8.90
2023-03-06T01:18:33.286Z,9.20
2023-03-06T01:19:05.951Z,9.60
2023-03-06T01:19:38.647Z,9.20
2023-03-06T01:20:11.297Z,7.90
2023-03-06T01:20:43.963Z,9.00
2023-03-06T01:21:16.626Z,9.30
2023-03-06T01:21:49.298Z,11.90
2023-03-06T01:22:21.968Z,8.70
2023-03-06T01:22:54.622Z,8.60
2023-03-06T01:23:27.286Z,9.60
2023-03-06T01:23:59.959Z,9.20
2023-03-06T01:24:32.640Z,10.70
2023-03-06T01:25:05.311Z,8.00
2023-03-06T01:25:38.004Z,8.70
2023-03-06T01:26:10.644Z,10.10
2023-03-06T01:26:43.317Z,8.60
2023-03-06T01:27:15.976Z,10.10
2023-03-06T01:27:48.651Z,10.70
2023-03-06T01:28:21.309Z,10.90
2023-03-06T01:28:54.002Z,9.80
2023-03-06T01:29:26.660Z,11.30
2023-03-06T01:29:59.336Z,10.00
2023-03-06T01:30:32.009Z,7.90
2023-03-06T01:31:04.673Z,9.70
2023-03-06T01:31:37.372Z,9.40
2023-03-06T01:32:10.131Z,9.60
2023-03-06T01:32:42.917Z,11.70
2023-03-06T01:33:15.601Z,9.80
2023-03-06T01:33:48.285Z,9.70
2023-03-06T01:34:21.011Z,10.80
2023-03-06T01:34:53.686Z,8.90
2023-03-06T01:35:26.412Z,11.00
2023-03-06T01:35:59.073Z,11.20
2023-03-06T01:36:31.744Z,10.60
2023-03-06T01:37:04.422Z,8.10
2023-03-06T01:37:37.176Z,11.10
2023-03-06T01:38:09.813Z,9.60
2023-03-06T01:38:42.486Z,8.60
2023-03-06T01:39:15.174Z,8.80
2023-03-06T01:39:47.843Z,13.50
2023-03-06T01:40:20.515Z,9.70
2023-03-06T01:40:53.197Z,9.00
2023-03-06T01:41:25.875Z,10.20
2023-03-06T01:41:58.538Z,10.20
2023-03-06T01:42:32.196Z,10.20
2023-03-06T01:42:58.399Z,9.40
2023-03-06T01:43:31.074Z,10.20
2023-03-06T01:44:03.774Z,8.40
2023-03-06T01:44:36.440Z,9.00
2023-03-06T01:45:09.104Z,9.50
2023-03-06T01:45:41.826Z,9.30
2023-03-06T01:46:14.558Z,10.70
2023-03-06T01:46:47.213Z,10.50
2023-03-06T01:47:19.878Z,11.70
2023-03-06T01:47:52.554Z,11.10
2023-03-06T01:48:25.218Z,11.60
2023-03-06T01:48:57.888Z,12.70
2023-03-06T01:49:30.566Z,10.90
2023-03-06T01:50:03.235Z,15.20
2023-03-06T01:50:35.902Z,12.90
2023-03-06T01:51:08.574Z,12.90
2023-03-06T01:51:41.237Z,13.30
2023-03-06T01:52:13.911Z,13.20
2023-03-06T01:52:46.591Z,13.20
2023-03-06T01:53:19.266Z,14.30
2023-03-06T01:53:51.948Z,18.20
2023-03-06T01:54:24.669Z,15.10
2023-03-06T01:54:57.332Z,14.50
2023-03-06T01:55:30.011Z,14.30
2023-03-06T01:56:02.675Z,12.80
2023-03-06T01:56:35.344Z,13.50
2023-03-06T01:57:08.026Z,15.60
2023-03-06T01:57:40.708Z,13.00
2023-03-06T01:58:13.372Z,15.20
2023-03-06T01:58:46.060Z,15.00
2023-03-06T01:59:18.747Z,14.20
2023-03-06T01:59:51.396Z,16.10
2023-03-06T02:00:24.065Z,12.90
2023-03-06T02:00:56.761Z,12.50
2023-03-06T02:01:29.431Z,13.30
2023-03-06T02:02:02.127Z,12.10
2023-03-06T02:02:34.884Z,14.30
2023-03-06T02:03:07.568Z,12.30
2023-03-06T02:03:40.252Z,14.60
2023-03-06T02:04:12.927Z,13.60
2023-03-06T02:04:45.605Z,13.50
2023-03-06T02:05:18.260Z,13.20
2023-03-06T02:05:50.922Z,12.90
2023-03-06T02:06:23.586Z,16.00
2023-03-06T02:06:56.256Z,14.50
2023-03-06T02:07:28.921Z,15.10
2023-03-06T02:08:01.602Z,13.90
2023-03-06T02:08:34.255Z,14.10
2023-03-06T02:09:06.954Z,15.70
2023-03-06T02:09:39.609Z,15.00
2023-03-06T02:10:12.296Z,13.70
2023-03-06T02:10:44.943Z,15.00
2023-03-06T02:11:17.689Z,15.10
2023-03-06T02:11:50.406Z,14.70
2023-03-06T02:12:23.100Z,16.40
2023-03-06T02:12:55.774Z,14.90
2023-03-06T02:13:28.434Z,16.40
2023-03-06T02:14:01.111Z,17.00
2023-03-06T02:14:33.819Z,15.30
2023-03-06T02:15:06.472Z,16.50
2023-03-06T02:15:39.139Z,15.30
2023-03-06T02:16:11.822Z,14.80
2023-03-06T02:16:44.535Z,15.00
2023-03-06T02:17:17.222Z,16.80
2023-03-06T02:17:49.897Z,15.80
2023-03-06T02:18:22.555Z,17.40
2023-03-06T02:18:55.225Z,14.60
2023-03-06T02:19:27.896Z,16.20
2023-03-06T02:20:00.573Z,14.80
2023-03-06T02:20:33.236Z,15.40
2023-03-06T02:21:05.904Z,16.00
2023-03-06T02:21:38.605Z,14.60
2023-03-06T02:22:11.264Z,16.70
2023-03-06T02:22:43.946Z,16.50
2023-03-06T02:23:16.677Z,16.80
2023-03-06T02:23:49.343Z,16.00
2023-03-06T02:24:22.033Z,16.70
2023-03-06T02:24:53.124Z,16.70
2023-03-06T02:25:25.787Z,16.40
2023-03-06T02:25:58.454Z,16.00
2023-03-06T02:26:31.133Z,18.70
2023-03-06T02:27:03.792Z,17.00
2023-03-06T02:27:36.454Z,18.50
2023-03-06T02:28:09.134Z,17.80
2023-03-06T02:28:41.801Z,14.80
2023-03-06T02:29:14.469Z,16.40
2023-03-06T02:29:47.159Z,15.60
2023-03-06T02:30:19.807Z,15.50
2023-03-06T02:30:52.579Z,16.70
2023-03-06T02:31:25.248Z,14.40
2023-03-06T02:31:57.912Z,17.10
2023-03-06T02:32:30.692Z,15.00
2023-03-06T02:33:03.358Z,13.40
2023-03-06T02:33:36.045Z,17.50
2023-03-06T02:34:08.716Z,17.50
2023-03-06T02:34:41.410Z,15.70
2023-03-06T02:35:14.070Z,14.70
2023-03-06T02:35:46.780Z,15.50
2023-03-06T02:36:19.421Z,15.20
2023-03-06T02:36:52.097Z,14.30
2023-03-06T02:37:24.770Z,14.50
2023-03-06T02:37:57.448Z,16.30
2023-03-06T02:38:30.102Z,15.20
2023-03-06T02:39:02.776Z,14.90
2023-03-06T02:39:35.473Z,16.00
2023-03-06T02:40:08.195Z,13.30
2023-03-06T02:40:40.851Z,14.00
2023-03-06T02:41:13.532Z,14.90
2023-03-06T02:41:46.193Z,15.00
2023-03-06T02:42:18.867Z,14.50
2023-03-06T02:42:51.576Z,14.60
2023-03-06T02:43:24.237Z,14.60
2023-03-06T02:43:55.315Z,15.20
2023-03-06T02:44:28.025Z,14.50
2023-03-06T02:45:00.700Z,15.00
2023-03-06T02:45:33.335Z,14.20
2023-03-06T02:46:06.050Z,14.30
2023-03-06T02:46:38.731Z,14.10
2023-03-06T02:47:11.403Z,14.10
2023-03-06T02:47:44.062Z,15.30
2023-03-06T02:48:16.717Z,14.00
2023-03-06T02:48:49.390Z,13.90
2023-03-06T02:49:22.077Z,13.80
2023-03-06T02:49:54.740Z,14.10
2023-03-06T02:50:27.403Z,14.10
2023-03-06T02:51:00.096Z,14.10
2023-03-06T02:51:32.743Z,15.70
2023-03-06T02:52:05.416Z,12.70
2023-03-06T02:52:38.100Z,15.30
2023-03-06T02:53:10.734Z,13.60
2023-03-06T02:53:43.405Z,12.90
2023-03-06T02:54:16.095Z,14.40
2023-03-06T02:54:48.739Z,12.40
2023-03-06T02:55:21.405Z,13.10
2023-03-06T02:55:54.077Z,14.20
2023-03-06T02:56:26.747Z,12.80
2023-03-06T02:56:59.408Z,13.70
2023-03-06T02:57:32.089Z,13.20
2023-03-06T02:58:04.766Z,16.10
2023-03-06T02:58:37.436Z,13.60
2023-03-06T02:59:10.089Z,13.60
2023-03-06T02:59:42.786Z,13.30
2023-03-06T03:00:15.476Z,13.30
2023-03-06T03:00:48.123Z,11.10
2023-03-06T03:01:20.806Z,13.50
2023-03-06T03:01:53.480Z,12.50
2023-03-06T03:02:26.138Z,12.10
2023-03-06T03:02:58.814Z,13.10
2023-03-06T03:03:29.906Z,13.70
2023-03-06T03:04:02.600Z,12.50
2023-03-06T03:04:35.366Z,14.40
2023-03-06T03:05:08.014Z,13.20
2023-03-06T03:05:40.700Z,13.60
2023-03-06T03:06:13.369Z,13.60
2023-03-06T03:06:46.058Z,14.00
2023-03-06T03:07:18.725Z,11.90
2023-03-06T03:07:51.382Z,12.80
2023-03-06T03:08:24.054Z,11.10
2023-03-06T03:08:56.732Z,12.30
2023-03-06T03:09:29.421Z,13.60
2023-03-06T03:10:02.106Z,15.40
2023-03-06T03:10:34.775Z,14.20
2023-03-06T03:11:07.440Z,13.40
2023-03-06T03:11:40.121Z,12.70
2023-03-06T03:12:12.782Z,11.20
2023-03-06T03:12:45.454Z,15.00
2023-03-06T03:13:18.129Z,14.20
2023-03-06T03:13:50.814Z,12.80
2023-03-06T03:14:23.476Z,12.80
2023-03-06T03:14:56.151Z,11.80
2023-03-06T03:15:28.842Z,13.10
2023-03-06T03:16:01.563Z,16.10
2023-03-06T03:16:34.230Z,13.80
2023-03-06T03:17:06.898Z,14.20
2023-03-06T03:17:39.561Z,13.30
2023-03-06T03:18:12.227Z,11.30
2023-03-06T03:18:44.894Z,12.70
2023-03-06T03:19:17.582Z,13.00
2023-03-06T03:19:50.261Z,12.90
2023-03-06T03:20:22.984Z,11.80
2023-03-06T03:20:55.661Z,10.90
2023-03-06T03:21:28.306Z,11.60
2023-03-06T03:22:00.977Z,12.40
2023-03-06T03:22:33.638Z,12.50
2023-03-06T03:23:06.308Z,12.40
2023-03-06T03:23:38.998Z,11.10
2023-03-06T03:24:11.664Z,12.90
2023-03-06T03:24:44.394Z,12.10
2023-03-06T03:25:17.027Z,11.80
2023-03-06T03:25:49.690Z,11.30
2023-03-06T03:26:22.376Z,11.40
2023-03-06T03:26:55.065Z,11.80
2023-03-06T03:27:27.739Z,11.00
2023-03-06T03:28:00.412Z,11.50
2023-03-06T03:28:33.088Z,12.00
2023-03-06T03:29:05.764Z,12.30
2023-03-06T03:29:38.449Z,13.20
2023-03-06T03:30:11.120Z,12.40
2023-03-06T03:30:43.827Z,10.60
2023-03-06T03:31:16.578Z,10.40
2023-03-06T03:31:49.237Z,12.50
2023-03-06T03:32:21.994Z,9.50
2023-03-06T03:32:54.640Z,12.10
2023-03-06T03:33:27.330Z,11.50
2023-03-06T03:33:59.992Z,10.90
2023-03-06T03:34:32.669Z,11.70
2023-03-06T03:35:05.340Z,11.30
2023-03-06T03:35:38.108Z,12.90
2023-03-06T03:36:10.766Z,13.40
2023-03-06T03:36:43.434Z,12.50
2023-03-06T03:37:16.100Z,9.00
2023-03-06T03:37:48.771Z,10.50
2023-03-06T03:38:21.439Z,12.70
2023-03-06T03:38:54.118Z,11.80
2023-03-06T03:39:26.802Z,9.40
2023-03-06T03:39:59.468Z,12.10
2023-03-06T03:40:32.133Z,10.70
2023-03-06T03:41:04.807Z,11.50
2023-03-06T03:41:37.484Z,10.60
2023-03-06T03:42:10.180Z,10.70
2023-03-06T03:42:42.854Z,10.70
2023-03-06T03:43:15.537Z,12.50
2023-03-06T03:43:48.204Z,10.90
2023-03-06T03:44:20.896Z,10.00
2023-03-06T03:44:53.610Z,12.10
2023-03-06T03:45:26.289Z,12.60
2023-03-06T03:45:58.988Z,11.50
2023-03-06T03:46:31.694Z,10.00
2023-03-06T03:47:04.344Z,12.40
2023-03-06T03:47:37.008Z,11.40
2023-03-06T03:48:09.687Z,12.30
2023-03-06T03:48:42.357Z,10.90
2023-03-06T03:49:15.045Z,11.20
2023-03-06T03:49:47.705Z,11.30
2023-03-06T03:50:20.371Z,11.80
2023-03-06T03:50:53.053Z,9.50
2023-03-06T03:51:25.726Z,10.50
2023-03-06T03:51:58.382Z,12.60
2023-03-06T03:52:31.055Z,11.60
2023-03-06T03:53:03.723Z,11.10
2023-03-06T03:53:36.430Z,11.10
2023-03-06T03:54:09.105Z,10.60
2023-03-06T03:54:41.790Z,10.70
2023-03-06T03:55:14.457Z,11.90
2023-03-06T03:55:47.127Z,12.30
2023-03-06T03:56:19.789Z,11.40
2023-03-06T03:56:52.459Z,11.90
2023-03-06T03:57:25.137Z,9.70
2023-03-06T03:57:57.805Z,12.30
2023-03-06T03:58:30.474Z,10.20
2023-03-06T03:59:03.151Z,10.50
2023-03-06T03:59:35.847Z,10.70
2023-03-06T04:00:08.520Z,12.30
2023-03-06T04:00:41.198Z,10.00
2023-03-06T04:01:13.908Z,9.90
2023-03-06T04:01:46.571Z,10.20
2023-03-06T04:02:19.266Z,10.50
2023-03-06T04:02:51.912Z,11.10
2023-03-06T04:03:24.584Z,10.20
2023-03-06T04:03:57.287Z,10.40
2023-03-06T04:04:29.986Z,9.80
2023-03-06T04:05:02.745Z,9.40
2023-03-06T04:05:35.438Z,10.10
2023-03-06T04:06:08.105Z,8.90
2023-03-06T04:06:40.766Z,10.70
2023-03-06T04:07:13.445Z,9.70
2023-03-06T04:07:46.123Z,9.40
2023-03-06T04:08:18.787Z,10.70
2023-03-06T04:08:51.458Z,9.50
2023-03-06T04:09:24.149Z,8.90
2023-03-06T04:09:56.816Z,8.10
2023-03-06T04:10:29.493Z,9.10
2023-03-06T04:11:02.175Z,10.00
2023-03-06T04:11:34.836Z,7.30
2023-03-06T04:12:07.502Z,8.10
2023-03-06T04:12:40.163Z,8.00
2023-03-06T04:13:12.833Z,8.30
2023-03-06T04:13:45.501Z,9.20
2023-03-06T04:14:18.188Z,7.30
2023-03-06T04:14:50.856Z,6.80
2023-03-06T04:15:23.537Z,7.80
2023-03-06T04:15:56.301Z,8.80
2023-03-06T04:16:29.149Z,7.40
2023-03-06T04:17:01.798Z,6.70
2023-03-06T04:17:34.484Z,7.30
2023-03-06T04:18:07.153Z,6.90
2023-03-06T04:18:39.824Z,7.40
2023-03-06T04:19:12.509Z,9.00
2023-03-06T04:19:45.179Z,6.70
2023-03-06T04:20:17.852Z,7.70
2023-03-06T04:20:50.547Z,7.30
2023-03-06T04:21:23.214Z,6.70
2023-03-06T04:21:55.895Z,6.90
2023-03-06T04:22:28.583Z,6.40
2023-03-06T04:23:01.246Z,6.70
2023-03-06T04:23:33.938Z,7.90
2023-03-06T04:24:06.598Z,5.50
2023-03-06T04:24:39.275Z,6.00
2023-03-06T04:25:11.953Z,5.30
2023-03-06T04:25:44.621Z,7.10
2023-03-06T04:26:17.317Z,5.90
2023-03-06T04:26:49.967Z,6.30
2023-03-06T04:27:22.665Z,7.80
2023-03-06T04:27:55.303Z,6.90
2023-03-06T04:28:27.980Z,7.60
2023-03-06T04:29:00.654Z,6.90
2023-03-06T04:29:33.343Z,6.30
2023-03-06T04:30:06.014Z,5.80
2023-03-06T04:30:38.688Z,6.60
2023-03-06T04:31:11.440Z,7.00
2023-03-06T04:31:44.130Z,6.50
2023-03-06T04:32:16.913Z,6.40
2023-03-06T04:32:49.580Z,8.20
2023-03-06T04:33:22.257Z,6.40
2023-03-06T04:33:54.934Z,7.20
2023-03-06T04:34:27.606Z,7.90
2023-03-06T04:35:00.301Z,7.00
2023-03-06T04:35:32.991Z,13.80
2023-03-06T04:36:05.649Z,11.00
2023-03-06T04:36:38.325Z,7.70
2023-03-06T04:37:11.003Z,6.90
2023-03-06T04:37:43.654Z,7.60
2023-03-06T04:38:16.450Z,7.90
2023-03-06T04:38:49.132Z,8.40
2023-03-06T04:39:21.805Z,7.90
2023-03-06T04:39:54.503Z,7.80
2023-03-06T04:40:27.180Z,8.10
2023-03-06T04:40:59.974Z,8.20
2023-03-06T04:41:32.777Z,8.30
2023-03-06T04:42:05.468Z,7.80
2023-03-06T04:42:38.142Z,8.30
2023-03-06T04:43:10.820Z,6.90
2023-03-06T04:43:43.489Z,7.00
2023-03-06T04:44:16.163Z,7.00
2023-03-06T04:44:48.844Z,7.10
2023-03-06T04:45:21.550Z,6.90
2023-03-06T04:45:54.270Z,8.30
2023-03-06T04:46:26.938Z,6.50
2023-03-06T04:46:59.609Z,6.80
2023-03-06T04:47:32.266Z,6.80
2023-03-06T04:48:04.928Z,6.50
2023-03-06T04:48:37.601Z,7.10
2023-03-06T04:49:10.326Z,6.90
2023-03-06T04:49:43.014Z,6.30
2023-03-06T04:50:15.690Z,6.30
2023-03-06T04:50:48.370Z,7.00
2023-03-06T04:51:21.021Z,7.00
2023-03-06T04:51:53.692Z,7.60
2023-03-06T04:52:26.353Z,7.30
2023-03-06T04:52:59.018Z,7.80
2023-03-06T04:53:31.692Z,7.80
2023-03-06T04:54:04.361Z,7.30
2023-03-06T04:54:37.035Z,7.30
2023-03-06T04:55:09.712Z,6.80
2023-03-06T04:55:42.380Z,7.30
2023-03-06T04:56:15.048Z,6.80
2023-03-06T04:56:47.732Z,7.70
2023-03-06T04:57:20.407Z,7.30
2023-03-06T04:57:53.091Z,6.80
2023-03-06T04:58:25.755Z,8.60
2023-03-06T04:58:58.427Z,7.30
2023-03-06T04:59:31.141Z,7.10
2023-03-06T05:00:03.831Z,6.90
2023-03-06T05:00:36.496Z,6.80
2023-03-06T05:01:09.266Z,8.10
2023-03-06T05:01:41.945Z,8.20
2023-03-06T05:02:14.694Z,7.70
2023-03-06T05:02:47.436Z,6.60
2023-03-06T05:03:20.115Z,8.00
2023-03-06T05:03:52.801Z,6.60
2023-03-06T05:04:25.464Z,8.70
2023-03-06T05:04:58.138Z,7.00
2023-03-06T05:05:30.818Z,7.00
2023-03-06T05:06:03.473Z,7.80
2023-03-06T05:06:36.152Z,7.10
2023-03-06T05:07:08.822Z,6.70
2023-03-06T05:07:41.495Z,6.50
2023-03-06T05:08:14.156Z,6.50
2023-03-06T05:08:46.839Z,6.10
2023-03-06T05:09:19.505Z,6.40
2023-03-06T05:09:52.180Z,6.80
2023-03-06T05:10:24.906Z,5.80
2023-03-06T05:10:57.538Z,6.50
2023-03-06T05:11:30.239Z,6.10
2023-03-06T05:12:02.908Z,7.00
2023-03-06T05:12:35.556Z,6.80
2023-03-06T05:13:08.238Z,6.30
2023-03-06T05:13:40.900Z,7.80
2023-03-06T05:14:13.579Z,6.50
2023-03-06T05:14:48.034Z,6.90
2023-03-06T05:15:14.309Z,7.90
2023-03-06T05:15:46.993Z,7.60
2023-03-06T05:16:19.682Z,7.40
2023-03-06T05:16:53.102Z,7.10
2023-03-06T05:17:19.327Z,9.10
2023-03-06T05:17:51.971Z,7.50
2023-03-06T05:18:24.638Z,7.20
2023-03-06T05:18:57.302Z,7.10
2023-03-06T05:19:29.991Z,8.60
2023-03-06T05:20:02.645Z,8.20
2023-03-06T05:20:35.317Z,7.90
2023-03-06T05:21:07.984Z,7.60
2023-03-06T05:21:40.671Z,7.80
2023-03-06T05:22:13.339Z,8.20
2023-03-06T05:22:46.016Z,7.20
2023-03-06T05:23:18.662Z,7.90
2023-03-06T05:23:51.331Z,8.70
2023-03-06T05:24:24.019Z,10.60
2023-03-06T05:24:56.684Z,8.60
2023-03-06T05:25:29.355Z,8.50
2023-03-06T05:26:02.031Z,7.50
2023-03-06T05:26:34.698Z,7.90
2023-03-06T05:27:07.382Z,7.70
2023-03-06T05:27:40.161Z,7.90
2023-03-06T05:28:12.840Z,7.80
2023-03-06T05:28:45.531Z,7.70
2023-03-06T05:29:18.209Z,8.30
2023-03-06T05:29:50.870Z,8.90
2023-03-06T05:30:23.541Z,8.50
2023-03-06T05:30:56.204Z,8.10
2023-03-06T05:31:28.974Z,9.20
2023-03-06T05:32:01.802Z,9.90
2023-03-06T05:32:35.807Z,8.60
2023-03-06T05:33:02.131Z,10.20
2023-03-06T05:33:34.796Z,8.70
2023-03-06T05:34:07.465Z,9.40
2023-03-06T05:34:40.160Z,9.20
2023-03-06T05:35:12.839Z,9.40
2023-03-06T05:35:45.552Z,8.60
2023-03-06T05:36:18.219Z,9.20
2023-03-06T05:36:50.893Z,8.60
2023-03-06T05:37:23.573Z,8.10
2023-03-06T05:37:56.500Z,8.30
2023-03-06T05:38:29.172Z,8.70
2023-03-06T05:39:01.852Z,8.90
2023-03-06T05:39:34.528Z,8.30
2023-03-06T05:40:07.194Z,9.70
2023-03-06T05:40:39.864Z,8.70
2023-03-06T05:41:12.545Z,8.10
2023-03-06T05:41:45.226Z,8.70
2023-03-06T05:42:17.898Z,8.40
2023-03-06T05:42:50.568Z,8.10
2023-03-06T05:43:23.235Z,8.20
2023-03-06T05:43:55.905Z,7.50
2023-03-06T05:44:28.597Z,7.20
2023-03-06T05:44:59.692Z,7.90
2023-03-06T05:45:32.416Z,7.40
2023-03-06T05:46:05.136Z,8.50
2023-03-06T05:46:37.814Z,7.60
2023-03-06T05:47:10.474Z,7.10
2023-03-06T05:47:43.183Z,8.40
2023-03-06T05:48:15.817Z,7.30
2023-03-06T05:48:48.493Z,6.50
2023-03-06T05:49:21.192Z,5.90
2023-03-06T05:49:53.855Z,6.20
2023-03-06T05:50:26.523Z,6.40
2023-03-06T05:50:59.186Z,6.50
2023-03-06T05:51:31.853Z,6.00
2023-03-06T05:52:04.521Z,6.60
2023-03-06T05:52:37.207Z,5.50
2023-03-06T05:53:09.876Z,5.70
2023-03-06T05:53:42.546Z,6.50
2023-03-06T05:54:15.232Z,7.70
2023-03-06T05:54:47.919Z,6.70
2023-03-06T05:55:20.596Z,6.00
2023-03-06T05:55:51.696Z,6.60
2023-03-06T05:56:24.375Z,6.10
2023-03-06T05:56:57.036Z,8.10
2023-03-06T05:57:29.717Z,6.00
2023-03-06T05:58:02.382Z,6.10
2023-03-06T05:58:35.046Z,5.60
2023-03-06T05:59:07.708Z,7.00
2023-03-06T05:59:40.413Z,6.10
2023-03-06T06:00:13.079Z,6.30
2023-03-06T06:00:45.748Z,8.30
2023-03-06T06:01:18.426Z,7.30
2023-03-06T06:01:51.099Z,6.80
2023-03-06T06:02:23.787Z,6.80
2023-03-06T06:02:56.460Z,8.60
2023-03-06T06:03:29.171Z,6.00
2023-03-06T06:04:01.811Z,6.80
2023-03-06T06:04:34.500Z,7.50
2023-03-06T06:05:07.173Z,7.30
2023-03-06T06:05:39.860Z,6.10
2023-03-06T06:06:12.573Z,6.30
2023-03-06T06:06:45.234Z,8.10
2023-03-06T06:07:17.916Z,6.60
2023-03-06T06:07:50.577Z,6.90
2023-03-06T06:08:23.259Z,6.80
2023-03-06T06:08:55.917Z,8.30
2023-03-06T06:09:28.603Z,7.20
2023-03-06T06:10:03.526Z,6.40
2023-03-06T06:10:29.920Z,6.80
2023-03-06T06:11:02.604Z,6.10
2023-03-06T06:11:35.295Z,6.30
2023-03-06T06:12:07.970Z,6.00
2023-03-06T06:12:40.668Z,6.60
2023-03-06T06:13:13.332Z,6.50
2023-03-06T06:13:46.016Z,6.70
2023-03-06T06:14:18.706Z,7.20
2023-03-06T06:14:51.381Z,7.30
2023-03-06T06:15:24.037Z,6.60
2023-03-06T06:15:56.750Z,7.40
2023-03-06T06:16:29.418Z,6.90
2023-03-06T06:17:02.093Z,6.30
2023-03-06T06:17:34.754Z,4.60
2023-03-06T06:18:07.459Z,6.80
2023-03-06T06:18:41.434Z,6.10
2023-03-06T06:19:07.722Z,7.10
2023-03-06T06:19:40.401Z,6.10
2023-03-06T06:20:13.058Z,8.00
2023-03-06T06:20:45.731Z,5.20
2023-03-06T06:21:18.389Z,6.60
2023-03-06T06:21:51.080Z,5.90
2023-03-06T06:22:23.785Z,7.30
2023-03-06T06:22:56.443Z,6.00
2023-03-06T06:23:29.125Z,4.50
2023-03-06T06:24:01.786Z,5.50
2023-03-06T06:24:34.490Z,4.80
2023-03-06T06:25:07.140Z,5.70
2023-03-06T06:25:39.811Z,4.80
2023-03-06T06:26:12.478Z,7.00
2023-03-06T06:26:45.144Z,4.70
2023-03-06T06:27:17.820Z,4.70
2023-03-06T06:27:50.487Z,4.70
2023-03-06T06:28:23.153Z,5.90
2023-03-06T06:28:55.827Z,5.40
2023-03-06T06:29:28.505Z,4.30
2023-03-06T06:30:01.200Z,5.90
2023-03-06T06:30:33.871Z,5.20
2023-03-06T06:31:06.610Z,4.50
2023-03-06T06:31:39.275Z,4.70
2023-03-06T06:32:11.979Z,4.50
2023-03-06T06:32:44.628Z,6.70
2023-03-06T06:33:17.311Z,5.40
2023-03-06T06:33:49.971Z,5.20
2023-03-06T06:34:22.669Z,5.50
2023-03-06T06:34:55.345Z,6.30
2023-03-06T06:35:28.036Z,5.90
2023-03-06T06:36:00.724Z,5.90
2023-03-06T06:36:33.400Z,5.40
2023-03-06T06:37:06.073Z,6.20
2023-03-06T06:37:38.740Z,6.60
2023-03-06T06:38:11.404Z,5.50
2023-03-06T06:38:44.080Z,5.10
2023-03-06T06:39:16.768Z,5.70
2023-03-06T06:39:49.441Z,7.00
2023-03-06T06:40:22.109Z,6.00
2023-03-06T06:41:27.207Z,6.10
2023-03-06T06:41:46.231Z,5.70
2023-03-06T06:42:19.505Z,5.40
2023-03-06T06:42:38.085Z,5.50
2023-03-06T06:43:03.139Z,5.40
2023-03-06T06:43:29.301Z,4.90
2023-03-06T06:44:01.972Z,6.50
2023-03-06T06:44:34.652Z,8.20
2023-03-06T06:45:07.329Z,6.00
2023-03-06T06:45:40.016Z,5.40
2023-03-06T06:46:47.158Z,5.80
2023-03-06T06:47:22.909Z,6.10
2023-03-06T06:47:48.047Z,5.60
2023-03-06T06:48:16.565Z,6.40
2023-03-06T06:48:42.882Z,5.20
2023-03-06T06:49:15.556Z,6.30
2023-03-06T06:49:48.217Z,5.90
2023-03-06T06:50:20.893Z,5.60
2023-03-06T06:50:53.592Z,6.60
2023-03-06T06:51:26.269Z,5.40
2023-03-06T06:51:58.943Z,5.70
2023-03-06T06:52:31.608Z,6.40
2023-03-06T06:53:04.270Z,5.90
2023-03-06T06:53:36.941Z,6.40
2023-03-06T06:54:09.603Z,4.50
2023-03-06T06:54:42.288Z,5.20
2023-03-06T06:55:14.964Z,6.10
2023-03-06T06:55:47.629Z,4.80
2023-03-06T06:56:20.286Z,6.30
2023-03-06T06:56:52.959Z,6.00
2023-03-06T06:57:25.623Z,4.40
2023-03-06T06:57:58.294Z,5.00
2023-03-06T06:58:30.990Z,5.90
2023-03-06T06:59:15.990Z,6.20
2023-03-06T06:59:35.746Z,5.50
2023-03-06T07:00:02.020Z,5.50
2023-03-06T07:00:34.667Z,6.30
2023-03-06T07:01:07.396Z,7.80
2023-03-06T07:01:40.099Z,6.60
2023-03-06T07:02:12.778Z,5.50
2023-03-06T07:02:45.437Z,5.90
2023-03-06T07:03:18.113Z,8.20
2023-03-06T07:03:50.842Z,6.00
2023-03-06T07:04:23.502Z,5.60
2023-03-06T07:05:04.204Z,5.50
2023-03-06T07:05:28.268Z,5.60
2023-03-06T07:05:54.431Z,6.40
2023-03-06T07:06:27.105Z,5.70
2023-03-06T07:06:59.801Z,6.00
2023-03-06T07:07:32.452Z,6.00
2023-03-06T07:08:05.119Z,6.00
2023-03-06T07:08:37.789Z,5.60
2023-03-06T07:09:10.470Z,7.20